sensor_id;sensor_type;location;lat;lon;timestamp;temperature;humidity
40253;DHT22;25972;51.854;4.534;2023-06-22T00:00:47;19.10;99.90
40253;DHT22;25972;51.854;4.534;2023-06-22T00:03:13;19.10;99.90
40253;DHT22;25972;51.854;4.534;2023-06-22T00:05:39;19.10;99.90
40253;DHT22;25972;51.854;4.534;2023-06-22T00:08:05;19.00;99.90
40253;DHT22;25972;51.854;4.534;2023-06-22T00:10:32;19.00;99.90
40253;DHT22;25972;51.854;4.534;2023-06-22T00:12:59;19.00;99.90
40253;DHT22;25972;51.854;4.534;2023-06-22T00:15:25;18.90;99.90
40253;DHT22;25972;51.854;4.534;2023-06-22T00:17:51;18.90;99.90
40253;DHT22;25972;51.854;4.534;2023-06-22T00:20:17;18.90;99.90
40253;DHT22;25972;51.854;4.534;2023-06-22T00:22:44;18.90;99.90
40253;DHT22;25972;51.854;4.534;2023-06-22T00:25:11;18.90;99.90
40253;DHT22;25972;51.854;4.534;2023-06-22T00:27:38;18.80;99.90
40253;DHT22;25972;51.854;4.534;2023-06-22T00:30:07;18.80;99.90
40253;DHT22;25972;51.854;4.534;2023-06-22T00:32:33;18.80;99.90
40253;DHT22;25972;51.854;4.534;2023-06-22T00:34:59;18.80;99.90
40253;DHT22;25972;51.854;4.534;2023-06-22T00:37:26;18.70;99.90
40253;DHT22;25972;51.854;4.534;2023-06-22T00:39:55;18.70;99.90
40253;DHT22;25972;51.854;4.534;2023-06-22T00:42:21;18.70;99.90
40253;DHT22;25972;51.854;4.534;2023-06-22T00:44:49;18.60;99.90
40253;DHT22;25972;51.854;4.534;2023-06-22T00:47:17;18.60;99.90
40253;DHT22;25972;51.854;4.534;2023-06-22T00:49:44;18.60;99.90
40253;DHT22;25972;51.854;4.534;2023-06-22T00:52:10;18.60;99.90
40253;DHT22;25972;51.854;4.534;2023-06-22T00:54:40;18.50;99.90
40253;DHT22;25972;51.854;4.534;2023-06-22T00:57:06;18.50;99.90
40253;DHT22;25972;51.854;4.534;2023-06-22T00:59:36;18.50;99.90
40253;DHT22;25972;51.854;4.534;2023-06-22T01:02:04;18.40;99.90
40253;DHT22;25972;51.854;4.534;2023-06-22T01:04:35;18.40;99.90
40253;DHT22;25972;51.854;4.534;2023-06-22T01:07:10;18.40;99.90
40253;DHT22;25972;51.854;4.534;2023-06-22T01:09:49;18.40;99.90
40253;DHT22;25972;51.854;4.534;2023-06-22T01:12:18;18.40;99.90
40253;DHT22;25972;51.854;4.534;2023-06-22T01:14:50;18.30;99.90
40253;DHT22;25972;51.854;4.534;2023-06-22T01:17:21;18.30;99.90
40253;DHT22;25972;51.854;4.534;2023-06-22T01:19:51;18.30;99.90
40253;DHT22;25972;51.854;4.534;2023-06-22T01:22:24;18.20;99.90
40253;DHT22;25972;51.854;4.534;2023-06-22T01:25:00;18.20;99.90
40253;DHT22;25972;51.854;4.534;2023-06-22T01:27:39;18.20;99.90
40253;DHT22;25972;51.854;4.534;2023-06-22T01:30:14;18.20;99.90
40253;DHT22;25972;51.854;4.534;2023-06-22T01:32:42;18.10;99.90
40253;DHT22;25972;51.854;4.534;2023-06-22T01:35:09;18.10;99.90
40253;DHT22;25972;51.854;4.534;2023-06-22T01:37:37;18.20;99.90
40253;DHT22;25972;51.854;4.534;2023-06-22T01:40:06;18.10;99.90
40253;DHT22;25972;51.854;4.534;2023-06-22T01:42:34;18.20;99.90
40253;DHT22;25972;51.854;4.534;2023-06-22T01:45:02;18.10;99.90
40253;DHT22;25972;51.854;4.534;2023-06-22T01:47:32;18.10;99.90
40253;DHT22;25972;51.854;4.534;2023-06-22T01:49:58;18.10;99.90
40253;DHT22;25972;51.854;4.534;2023-06-22T01:52:24;18.10;99.90
40253;DHT22;25972;51.854;4.534;2023-06-22T01:54:51;18.10;99.90
40253;DHT22;25972;51.854;4.534;2023-06-22T01:57:18;18.10;99.90
40253;DHT22;25972;51.854;4.534;2023-06-22T01:59:55;18.10;99.90
40253;DHT22;25972;51.854;4.534;2023-06-22T02:02:27;18.10;99.90
40253;DHT22;25972;51.854;4.534;2023-06-22T02:04:59;18.00;99.90
40253;DHT22;25972;51.854;4.534;2023-06-22T02:07:32;18.00;99.90
40253;DHT22;25972;51.854;4.534;2023-06-22T02:10:03;18.00;99.90
40253;DHT22;25972;51.854;4.534;2023-06-22T02:12:32;18.00;99.90
40253;DHT22;25972;51.854;4.534;2023-06-22T02:14:59;18.00;99.90
40253;DHT22;25972;51.854;4.534;2023-06-22T02:17:26;18.00;99.90
40253;DHT22;25972;51.854;4.534;2023-06-22T02:19:52;18.00;99.90
40253;DHT22;25972;51.854;4.534;2023-06-22T02:22:21;17.90;99.90
40253;DHT22;25972;51.854;4.534;2023-06-22T02:24:51;17.90;99.90
40253;DHT22;25972;51.854;4.534;2023-06-22T02:27:19;17.90;99.90
40253;DHT22;25972;51.854;4.534;2023-06-22T02:29:45;17.80;99.90
40253;DHT22;25972;51.854;4.534;2023-06-22T02:32:11;17.90;99.90
40253;DHT22;25972;51.854;4.534;2023-06-22T02:34:39;17.80;99.90
40253;DHT22;25972;51.854;4.534;2023-06-22T02:37:05;17.80;99.90
40253;DHT22;25972;51.854;4.534;2023-06-22T02:39:33;17.80;99.90
40253;DHT22;25972;51.854;4.534;2023-06-22T02:41:59;17.80;99.90
40253;DHT22;25972;51.854;4.534;2023-06-22T02:44:25;17.80;99.90
40253;DHT22;25972;51.854;4.534;2023-06-22T02:46:51;17.70;99.90
40253;DHT22;25972;51.854;4.534;2023-06-22T02:49:18;17.80;99.90
40253;DHT22;25972;51.854;4.534;2023-06-22T02:51:46;17.80;99.90
40253;DHT22;25972;51.854;4.534;2023-06-22T02:54:13;17.80;99.90
40253;DHT22;25972;51.854;4.534;2023-06-22T02:56:41;17.80;99.90
40253;DHT22;25972;51.854;4.534;2023-06-22T02:59:09;17.70;99.90
40253;DHT22;25972;51.854;4.534;2023-06-22T03:01:38;17.70;99.90
40253;DHT22;25972;51.854;4.534;2023-06-22T03:04:09;17.70;99.90
40253;DHT22;25972;51.854;4.534;2023-06-22T03:06:36;17.70;99.90
40253;DHT22;25972;51.854;4.534;2023-06-22T03:09:03;17.70;99.90
40253;DHT22;25972;51.854;4.534;2023-06-22T03:11:31;17.70;99.90
40253;DHT22;25972;51.854;4.534;2023-06-22T03:14:00;17.70;99.90
40253;DHT22;25972;51.854;4.534;2023-06-22T03:16:26;17.70;99.90
40253;DHT22;25972;51.854;4.534;2023-06-22T03:18:52;17.70;99.90
40253;DHT22;25972;51.854;4.534;2023-06-22T03:21:22;17.70;99.90
40253;DHT22;25972;51.854;4.534;2023-06-22T03:23:48;17.70;99.90
40253;DHT22;25972;51.854;4.534;2023-06-22T03:26:16;17.60;99.90
40253;DHT22;25972;51.854;4.534;2023-06-22T03:28:43;17.70;99.90
40253;DHT22;25972;51.854;4.534;2023-06-22T03:31:10;17.60;99.90
40253;DHT22;25972;51.854;4.534;2023-06-22T03:33:39;17.60;99.90
40253;DHT22;25972;51.854;4.534;2023-06-22T03:36:06;17.60;99.90
40253;DHT22;25972;51.854;4.534;2023-06-22T03:38:32;17.60;99.90
40253;DHT22;25972;51.854;4.534;2023-06-22T03:40:58;17.60;99.90
40253;DHT22;25972;51.854;4.534;2023-06-22T03:43:25;17.60;99.90
40253;DHT22;25972;51.854;4.534;2023-06-22T03:45:52;17.60;99.90
40253;DHT22;25972;51.854;4.534;2023-06-22T03:48:19;17.60;99.90
40253;DHT22;25972;51.854;4.534;2023-06-22T03:50:45;17.60;99.90
40253;DHT22;25972;51.854;4.534;2023-06-22T03:53:11;17.60;99.90
40253;DHT22;25972;51.854;4.534;2023-06-22T03:55:48;17.60;99.90
40253;DHT22;25972;51.854;4.534;2023-06-22T03:58:16;17.70;99.90
40253;DHT22;25972;51.854;4.534;2023-06-22T04:00:42;17.70;99.90
40253;DHT22;25972;51.854;4.534;2023-06-22T04:03:34;17.70;99.90
40253;DHT22;25972;51.854;4.534;2023-06-22T04:06:00;17.70;99.90
40253;DHT22;25972;51.854;4.534;2023-06-22T04:08:26;17.80;99.90
40253;DHT22;25972;51.854;4.534;2023-06-22T04:11:02;17.80;99.90
40253;DHT22;25972;51.854;4.534;2023-06-22T04:16:38;17.90;99.90
40253;DHT22;25972;51.854;4.534;2023-06-22T04:19:06;18.00;99.90
40253;DHT22;25972;51.854;4.534;2023-06-22T04:21:35;18.00;99.90
40253;DHT22;25972;51.854;4.534;2023-06-22T04:24:01;18.10;99.90
40253;DHT22;25972;51.854;4.534;2023-06-22T04:26:27;18.10;99.90
40253;DHT22;25972;51.854;4.534;2023-06-22T04:28:53;18.20;99.90
40253;DHT22;25972;51.854;4.534;2023-06-22T04:31:21;18.30;99.90
40253;DHT22;25972;51.854;4.534;2023-06-22T04:33:47;18.30;99.90
40253;DHT22;25972;51.854;4.534;2023-06-22T04:36:15;18.40;99.90
40253;DHT22;25972;51.854;4.534;2023-06-22T04:38:41;18.50;99.90
40253;DHT22;25972;51.854;4.534;2023-06-22T04:41:08;18.60;99.90
40253;DHT22;25972;51.854;4.534;2023-06-22T04:43:39;18.70;99.90
40253;DHT22;25972;51.854;4.534;2023-06-22T04:46:06;18.80;99.90
40253;DHT22;25972;51.854;4.534;2023-06-22T04:48:32;18.90;99.90
40253;DHT22;25972;51.854;4.534;2023-06-22T04:50:58;19.10;99.90
40253;DHT22;25972;51.854;4.534;2023-06-22T04:53:30;19.40;99.90
40253;DHT22;25972;51.854;4.534;2023-06-22T04:55:57;19.80;99.90
40253;DHT22;25972;51.854;4.534;2023-06-22T04:58:23;20.30;99.90
40253;DHT22;25972;51.854;4.534;2023-06-22T05:00:49;20.80;99.90
40253;DHT22;25972;51.854;4.534;2023-06-22T05:03:17;21.50;99.90
40253;DHT22;25972;51.854;4.534;2023-06-22T05:05:47;22.10;99.90
40253;DHT22;25972;51.854;4.534;2023-06-22T05:08:13;22.90;99.90
40253;DHT22;25972;51.854;4.534;2023-06-22T05:10:41;23.60;99.90
40253;DHT22;25972;51.854;4.534;2023-06-22T05:13:07;24.20;99.90
40253;DHT22;25972;51.854;4.534;2023-06-22T05:15:33;24.70;99.90
40253;DHT22;25972;51.854;4.534;2023-06-22T05:18:02;25.00;99.90
40253;DHT22;25972;51.854;4.534;2023-06-22T05:20:31;25.50;99.90
40253;DHT22;25972;51.854;4.534;2023-06-22T05:22:57;25.40;99.90
40253;DHT22;25972;51.854;4.534;2023-06-22T05:25:24;25.50;99.90
40253;DHT22;25972;51.854;4.534;2023-06-22T05:27:51;25.10;99.90
40253;DHT22;25972;51.854;4.534;2023-06-22T05:30:17;24.70;99.90
40253;DHT22;25972;51.854;4.534;2023-06-22T05:32:45;24.20;99.90
40253;DHT22;25972;51.854;4.534;2023-06-22T05:35:11;23.50;99.90
40253;DHT22;25972;51.854;4.534;2023-06-22T05:37:37;23.10;99.90
40253;DHT22;25972;51.854;4.534;2023-06-22T05:40:04;22.80;99.90
40253;DHT22;25972;51.854;4.534;2023-06-22T05:42:33;22.60;99.90
40253;DHT22;25972;51.854;4.534;2023-06-22T05:45:00;23.30;99.90
40253;DHT22;25972;51.854;4.534;2023-06-22T05:47:26;24.10;99.90
40253;DHT22;25972;51.854;4.534;2023-06-22T05:49:52;24.60;99.90
40253;DHT22;25972;51.854;4.534;2023-06-22T05:52:18;24.40;65.90
40253;DHT22;25972;51.854;4.534;2023-06-22T05:54:45;24.60;54.20
40253;DHT22;25972;51.854;4.534;2023-06-22T05:57:11;24.50;27.10
40253;DHT22;25972;51.854;4.534;2023-06-22T05:59:37;24.20;16.60
40253;DHT22;25972;51.854;4.534;2023-06-22T06:02:05;23.80;8.10
40253;DHT22;25972;51.854;4.534;2023-06-22T06:04:31;23.60;14.90
40253;DHT22;25972;51.854;4.534;2023-06-22T06:06:57;23.30;21.60
40253;DHT22;25972;51.854;4.534;2023-06-22T06:09:23;23.10;25.00
40253;DHT22;25972;51.854;4.534;2023-06-22T06:11:49;22.90;37.20
40253;DHT22;25972;51.854;4.534;2023-06-22T06:14:16;22.70;45.10
40253;DHT22;25972;51.854;4.534;2023-06-22T06:16:46;22.70;58.00
40253;DHT22;25972;51.854;4.534;2023-06-22T06:19:13;22.70;68.90
40253;DHT22;25972;51.854;4.534;2023-06-22T06:21:40;22.70;73.30
40253;DHT22;25972;51.854;4.534;2023-06-22T06:24:06;22.80;85.40
40253;DHT22;25972;51.854;4.534;2023-06-22T06:26:32;22.90;85.20
40253;DHT22;25972;51.854;4.534;2023-06-22T06:29:00;23.00;90.00
40253;DHT22;25972;51.854;4.534;2023-06-22T06:31:26;23.00;82.00
40253;DHT22;25972;51.854;4.534;2023-06-22T06:33:55;23.00;81.70
40253;DHT22;25972;51.854;4.534;2023-06-22T06:36:25;22.90;62.30
40253;DHT22;25972;51.854;4.534;2023-06-22T06:38:51;23.10;67.50
40253;DHT22;25972;51.854;4.534;2023-06-22T06:41:18;23.30;75.10
40253;DHT22;25972;51.854;4.534;2023-06-22T06:43:47;23.40;61.70
40253;DHT22;25972;51.854;4.534;2023-06-22T06:46:13;23.50;48.40
40253;DHT22;25972;51.854;4.534;2023-06-22T06:48:39;23.40;38.80
40253;DHT22;25972;51.854;4.534;2023-06-22T06:51:05;23.40;32.50
40253;DHT22;25972;51.854;4.534;2023-06-22T06:53:37;23.40;29.10
40253;DHT22;25972;51.854;4.534;2023-06-22T06:56:04;23.60;28.90
40253;DHT22;25972;51.854;4.534;2023-06-22T06:58:31;23.50;18.10
40253;DHT22;25972;51.854;4.534;2023-06-22T07:00:57;23.60;9.00
40253;DHT22;25972;51.854;4.534;2023-06-22T07:03:23;23.60;1.00
40253;DHT22;25972;51.854;4.534;2023-06-22T07:05:49;23.50;1.00
40253;DHT22;25972;51.854;4.534;2023-06-22T07:08:15;23.50;1.00
40253;DHT22;25972;51.854;4.534;2023-06-22T07:10:43;23.50;1.00
40253;DHT22;25972;51.854;4.534;2023-06-22T07:13:09;23.60;1.00
40253;DHT22;25972;51.854;4.534;2023-06-22T07:15:35;23.60;1.00
40253;DHT22;25972;51.854;4.534;2023-06-22T07:18:01;23.60;1.00
40253;DHT22;25972;51.854;4.534;2023-06-22T07:20:27;23.50;1.00
40253;DHT22;25972;51.854;4.534;2023-06-22T07:22:53;23.50;1.00
40253;DHT22;25972;51.854;4.534;2023-06-22T07:25:19;23.80;1.00
40253;DHT22;25972;51.854;4.534;2023-06-22T07:27:57;24.00;1.00
40253;DHT22;25972;51.854;4.534;2023-06-22T07:30:24;24.40;1.00
40253;DHT22;25972;51.854;4.534;2023-06-22T07:32:50;24.40;1.00
40253;DHT22;25972;51.854;4.534;2023-06-22T07:35:16;24.40;1.00
40253;DHT22;25972;51.854;4.534;2023-06-22T07:37:42;24.40;1.00
40253;DHT22;25972;51.854;4.534;2023-06-22T07:40:09;24.40;1.00
40253;DHT22;25972;51.854;4.534;2023-06-22T07:42:35;24.20;1.00
40253;DHT22;25972;51.854;4.534;2023-06-22T07:45:04;24.10;1.00
40253;DHT22;25972;51.854;4.534;2023-06-22T07:47:31;24.10;1.00
40253;DHT22;25972;51.854;4.534;2023-06-22T07:50:02;24.10;1.00
40253;DHT22;25972;51.854;4.534;2023-06-22T07:52:28;24.20;1.00
40253;DHT22;25972;51.854;4.534;2023-06-22T07:54:54;24.40;1.00
40253;DHT22;25972;51.854;4.534;2023-06-22T07:57:20;24.60;1.00
40253;DHT22;25972;51.854;4.534;2023-06-22T07:59:47;24.70;1.00
40253;DHT22;25972;51.854;4.534;2023-06-22T08:02:14;24.70;1.00
40253;DHT22;25972;51.854;4.534;2023-06-22T08:04:41;24.70;1.00
40253;DHT22;25972;51.854;4.534;2023-06-22T08:07:07;24.70;1.00
40253;DHT22;25972;51.854;4.534;2023-06-22T08:09:33;24.90;1.00
40253;DHT22;25972;51.854;4.534;2023-06-22T08:12:00;25.10;1.00
40253;DHT22;25972;51.854;4.534;2023-06-22T08:14:26;25.30;1.00
40253;DHT22;25972;51.854;4.534;2023-06-22T08:16:52;25.30;1.00
40253;DHT22;25972;51.854;4.534;2023-06-22T08:19:20;25.60;1.00
40253;DHT22;25972;51.854;4.534;2023-06-22T08:21:46;25.90;1.00
40253;DHT22;25972;51.854;4.534;2023-06-22T08:24:12;26.00;1.00
40253;DHT22;25972;51.854;4.534;2023-06-22T08:26:38;26.10;1.00
40253;DHT22;25972;51.854;4.534;2023-06-22T08:29:04;26.30;1.00
40253;DHT22;25972;51.854;4.534;2023-06-22T08:31:31;26.50;1.00
40253;DHT22;25972;51.854;4.534;2023-06-22T08:34:01;26.50;1.00
40253;DHT22;25972;51.854;4.534;2023-06-22T08:36:28;26.40;1.00
40253;DHT22;25972;51.854;4.534;2023-06-22T08:38:58;26.20;1.00
40253;DHT22;25972;51.854;4.534;2023-06-22T08:41:28;26.10;1.00
40253;DHT22;25972;51.854;4.534;2023-06-22T08:43:55;26.00;1.00
40253;DHT22;25972;51.854;4.534;2023-06-22T08:46:21;25.90;1.00
40253;DHT22;25972;51.854;4.534;2023-06-22T08:48:49;25.60;1.00
40253;DHT22;25972;51.854;4.534;2023-06-22T08:51:16;25.40;1.00
40253;DHT22;25972;51.854;4.534;2023-06-22T08:53:44;25.40;1.00
40253;DHT22;25972;51.854;4.534;2023-06-22T08:56:11;25.50;1.00
40253;DHT22;25972;51.854;4.534;2023-06-22T08:58:37;25.60;1.00
40253;DHT22;25972;51.854;4.534;2023-06-22T09:01:03;25.70;1.00
40253;DHT22;25972;51.854;4.534;2023-06-22T09:03:31;25.70;1.00
40253;DHT22;25972;51.854;4.534;2023-06-22T09:05:58;25.80;1.00
40253;DHT22;25972;51.854;4.534;2023-06-22T09:08:24;25.80;1.00
40253;DHT22;25972;51.854;4.534;2023-06-22T09:10:52;25.80;1.00
40253;DHT22;25972;51.854;4.534;2023-06-22T09:13:18;25.60;1.00
40253;DHT22;25972;51.854;4.534;2023-06-22T09:15:44;25.40;1.00
40253;DHT22;25972;51.854;4.534;2023-06-22T09:18:10;25.50;1.00
40253;DHT22;25972;51.854;4.534;2023-06-22T09:20:37;25.40;1.00
40253;DHT22;25972;51.854;4.534;2023-06-22T09:23:03;25.60;1.00
40253;DHT22;25972;51.854;4.534;2023-06-22T09:25:29;25.40;1.00
40253;DHT22;25972;51.854;4.534;2023-06-22T09:27:57;25.30;1.00
40253;DHT22;25972;51.854;4.534;2023-06-22T09:30:23;25.10;1.00
40253;DHT22;25972;51.854;4.534;2023-06-22T09:32:49;25.10;1.00
40253;DHT22;25972;51.854;4.534;2023-06-22T09:35:15;25.30;1.00
40253;DHT22;25972;51.854;4.534;2023-06-22T09:37:41;25.30;1.00
40253;DHT22;25972;51.854;4.534;2023-06-22T09:40:08;25.10;1.00
40253;DHT22;25972;51.854;4.534;2023-06-22T09:42:36;25.20;1.00
40253;DHT22;25972;51.854;4.534;2023-06-22T09:45:04;25.20;1.00
40253;DHT22;25972;51.854;4.534;2023-06-22T09:47:31;25.20;1.00
40253;DHT22;25972;51.854;4.534;2023-06-22T09:49:57;25.20;1.00
40253;DHT22;25972;51.854;4.534;2023-06-22T09:52:25;25.20;1.00
40253;DHT22;25972;51.854;4.534;2023-06-22T09:54:51;25.10;1.00
40253;DHT22;25972;51.854;4.534;2023-06-22T09:57:17;25.00;1.00
40253;DHT22;25972;51.854;4.534;2023-06-22T09:59:43;25.00;1.00
40253;DHT22;25972;51.854;4.534;2023-06-22T10:02:11;25.00;1.00
40253;DHT22;25972;51.854;4.534;2023-06-22T10:04:37;24.80;1.00
40253;DHT22;25972;51.854;4.534;2023-06-22T10:07:03;24.80;1.00
40253;DHT22;25972;51.854;4.534;2023-06-22T10:09:29;24.80;1.00
40253;DHT22;25972;51.854;4.534;2023-06-22T10:11:55;24.70;1.00
40253;DHT22;25972;51.854;4.534;2023-06-22T10:14:21;24.60;1.00
40253;DHT22;25972;51.854;4.534;2023-06-22T10:16:48;24.70;1.00
40253;DHT22;25972;51.854;4.534;2023-06-22T10:19:16;24.70;1.00
40253;DHT22;25972;51.854;4.534;2023-06-22T10:21:42;24.60;1.00
40253;DHT22;25972;51.854;4.534;2023-06-22T10:24:08;24.60;1.00
40253;DHT22;25972;51.854;4.534;2023-06-22T10:26:35;24.70;1.00
40253;DHT22;25972;51.854;4.534;2023-06-22T10:29:02;24.80;1.00
40253;DHT22;25972;51.854;4.534;2023-06-22T10:31:28;24.90;1.00
40253;DHT22;25972;51.854;4.534;2023-06-22T10:33:55;24.90;1.00
40253;DHT22;25972;51.854;4.534;2023-06-22T10:36:23;24.80;1.00
40253;DHT22;25972;51.854;4.534;2023-06-22T10:38:49;24.80;1.00
40253;DHT22;25972;51.854;4.534;2023-06-22T10:41:15;24.80;1.00
40253;DHT22;25972;51.854;4.534;2023-06-22T10:43:42;24.70;1.00
40253;DHT22;25972;51.854;4.534;2023-06-22T10:46:08;24.80;1.00
40253;DHT22;25972;51.854;4.534;2023-06-22T10:48:35;24.70;1.00
40253;DHT22;25972;51.854;4.534;2023-06-22T10:51:01;24.80;1.00
40253;DHT22;25972;51.854;4.534;2023-06-22T10:53:28;24.80;1.00
40253;DHT22;25972;51.854;4.534;2023-06-22T10:55:54;24.70;1.00
40253;DHT22;25972;51.854;4.534;2023-06-22T10:58:20;24.60;1.00
40253;DHT22;25972;51.854;4.534;2023-06-22T11:00:46;24.50;1.00
40253;DHT22;25972;51.854;4.534;2023-06-22T11:03:13;24.40;1.00
40253;DHT22;25972;51.854;4.534;2023-06-22T11:05:40;24.40;1.00
40253;DHT22;25972;51.854;4.534;2023-06-22T11:08:06;24.40;1.00
40253;DHT22;25972;51.854;4.534;2023-06-22T11:10:33;24.40;1.00
40253;DHT22;25972;51.854;4.534;2023-06-22T11:12:59;24.40;1.00
40253;DHT22;25972;51.854;4.534;2023-06-22T11:15:25;24.40;1.00
40253;DHT22;25972;51.854;4.534;2023-06-22T11:17:51;24.50;1.00
40253;DHT22;25972;51.854;4.534;2023-06-22T11:20:18;24.60;1.00
40253;DHT22;25972;51.854;4.534;2023-06-22T11:22:44;24.60;1.00
40253;DHT22;25972;51.854;4.534;2023-06-22T11:25:10;24.60;1.00
40253;DHT22;25972;51.854;4.534;2023-06-22T11:27:39;24.50;1.00
40253;DHT22;25972;51.854;4.534;2023-06-22T11:30:06;24.50;1.00
40253;DHT22;25972;51.854;4.534;2023-06-22T11:32:33;24.50;1.00
40253;DHT22;25972;51.854;4.534;2023-06-22T11:34:59;24.40;1.00
40253;DHT22;25972;51.854;4.534;2023-06-22T11:37:25;24.40;1.00
40253;DHT22;25972;51.854;4.534;2023-06-22T11:39:51;24.40;1.00
40253;DHT22;25972;51.854;4.534;2023-06-22T11:42:20;24.40;1.00
40253;DHT22;25972;51.854;4.534;2023-06-22T11:44:48;24.30;1.00
40253;DHT22;25972;51.854;4.534;2023-06-22T11:47:14;24.40;1.00
40253;DHT22;25972;51.854;4.534;2023-06-22T11:49:41;24.30;1.00
40253;DHT22;25972;51.854;4.534;2023-06-22T11:52:07;24.30;1.00
40253;DHT22;25972;51.854;4.534;2023-06-22T11:54:33;24.30;1.00
40253;DHT22;25972;51.854;4.534;2023-06-22T11:56:59;24.30;1.00
40253;DHT22;25972;51.854;4.534;2023-06-22T11:59:25;24.30;1.00
40253;DHT22;25972;51.854;4.534;2023-06-22T12:01:53;24.30;1.00
40253;DHT22;25972;51.854;4.534;2023-06-22T12:04:19;24.20;1.00
40253;DHT22;25972;51.854;4.534;2023-06-22T12:06:46;24.20;1.00
40253;DHT22;25972;51.854;4.534;2023-06-22T12:09:12;24.20;1.00
40253;DHT22;25972;51.854;4.534;2023-06-22T12:11:39;24.20;1.00
40253;DHT22;25972;51.854;4.534;2023-06-22T12:14:05;24.10;1.00
40253;DHT22;25972;51.854;4.534;2023-06-22T12:16:31;24.10;1.00
40253;DHT22;25972;51.854;4.534;2023-06-22T12:18:59;24.10;1.00
40253;DHT22;25972;51.854;4.534;2023-06-22T12:21:25;24.10;1.00
40253;DHT22;25972;51.854;4.534;2023-06-22T12:23:51;24.10;1.00
40253;DHT22;25972;51.854;4.534;2023-06-22T12:26:17;24.20;1.00
40253;DHT22;25972;51.854;4.534;2023-06-22T12:28:44;24.20;1.00
40253;DHT22;25972;51.854;4.534;2023-06-22T12:31:09;24.20;1.00
40253;DHT22;25972;51.854;4.534;2023-06-22T12:33:36;24.20;1.00
40253;DHT22;25972;51.854;4.534;2023-06-22T12:36:04;24.10;1.00
40253;DHT22;25972;51.854;4.534;2023-06-22T12:38:30;24.10;1.20
40253;DHT22;25972;51.854;4.534;2023-06-22T12:40:56;24.20;13.90
40253;DHT22;25972;51.854;4.534;2023-06-22T12:43:22;24.10;18.10
40253;DHT22;25972;51.854;4.534;2023-06-22T12:45:50;24.10;28.50
40253;DHT22;25972;51.854;4.534;2023-06-22T12:48:16;24.10;39.20
40253;DHT22;25972;51.854;4.534;2023-06-22T12:50:42;24.10;42.60
40253;DHT22;25972;51.854;4.534;2023-06-22T12:53:10;24.10;63.80
40253;DHT22;25972;51.854;4.534;2023-06-22T12:55:36;24.10;77.20
40253;DHT22;25972;51.854;4.534;2023-06-22T12:58:02;24.00;94.10
40253;DHT22;25972;51.854;4.534;2023-06-22T13:00:28;24.00;99.90
40253;DHT22;25972;51.854;4.534;2023-06-22T13:02:54;23.90;99.90
40253;DHT22;25972;51.854;4.534;2023-06-22T13:05:20;23.80;99.90
40253;DHT22;25972;51.854;4.534;2023-06-22T13:07:46;23.70;99.90
40253;DHT22;25972;51.854;4.534;2023-06-22T13:10:14;23.60;99.90
40253;DHT22;25972;51.854;4.534;2023-06-22T13:12:40;23.50;99.90
40253;DHT22;25972;51.854;4.534;2023-06-22T13:15:07;23.40;99.90
40253;DHT22;25972;51.854;4.534;2023-06-22T13:17:33;23.30;99.90
40253;DHT22;25972;51.854;4.534;2023-06-22T13:19:59;23.30;99.90
40253;DHT22;25972;51.854;4.534;2023-06-22T13:22:30;23.30;99.90
40253;DHT22;25972;51.854;4.534;2023-06-22T13:24:56;23.20;99.90
40253;DHT22;25972;51.854;4.534;2023-06-22T13:27:24;23.10;99.90
40253;DHT22;25972;51.854;4.534;2023-06-22T13:29:50;23.10;99.90
40253;DHT22;25972;51.854;4.534;2023-06-22T13:32:16;23.10;99.90
40253;DHT22;25972;51.854;4.534;2023-06-22T13:34:42;23.00;99.90
40253;DHT22;25972;51.854;4.534;2023-06-22T13:37:09;22.90;99.90
40253;DHT22;25972;51.854;4.534;2023-06-22T13:39:35;22.90;99.90
40253;DHT22;25972;51.854;4.534;2023-06-22T13:42:01;22.90;99.90
40253;DHT22;25972;51.854;4.534;2023-06-22T13:44:28;22.80;99.90
40253;DHT22;25972;51.854;4.534;2023-06-22T13:46:54;22.80;99.90
40253;DHT22;25972;51.854;4.534;2023-06-22T13:49:21;22.80;99.90
40253;DHT22;25972;51.854;4.534;2023-06-22T13:51:47;22.70;99.90
40253;DHT22;25972;51.854;4.534;2023-06-22T13:54:14;22.70;99.90
40253;DHT22;25972;51.854;4.534;2023-06-22T13:56:40;22.60;99.90
40253;DHT22;25972;51.854;4.534;2023-06-22T13:59:06;22.50;99.90
40253;DHT22;25972;51.854;4.534;2023-06-22T14:01:36;22.50;99.90
40253;DHT22;25972;51.854;4.534;2023-06-22T14:04:02;22.40;99.90
40253;DHT22;25972;51.854;4.534;2023-06-22T14:06:28;22.30;99.90
40253;DHT22;25972;51.854;4.534;2023-06-22T14:08:54;22.20;99.90
40253;DHT22;25972;51.854;4.534;2023-06-22T14:11:20;22.20;99.90
40253;DHT22;25972;51.854;4.534;2023-06-22T14:13:47;22.10;99.90
40253;DHT22;25972;51.854;4.534;2023-06-22T14:16:13;22.10;99.90
40253;DHT22;25972;51.854;4.534;2023-06-22T14:18:40;22.00;99.90
40253;DHT22;25972;51.854;4.534;2023-06-22T14:21:06;22.00;99.90
40253;DHT22;25972;51.854;4.534;2023-06-22T14:23:33;21.90;99.90
40253;DHT22;25972;51.854;4.534;2023-06-22T14:25:59;21.90;99.90
40253;DHT22;25972;51.854;4.534;2023-06-22T14:28:25;21.90;99.90
40253;DHT22;25972;51.854;4.534;2023-06-22T14:30:51;21.80;99.90
40253;DHT22;25972;51.854;4.534;2023-06-22T14:33:17;21.80;99.90
40253;DHT22;25972;51.854;4.534;2023-06-22T14:35:45;21.80;99.90
40253;DHT22;25972;51.854;4.534;2023-06-22T14:38:11;21.80;99.90
40253;DHT22;25972;51.854;4.534;2023-06-22T14:40:37;21.80;99.90
40253;DHT22;25972;51.854;4.534;2023-06-22T14:43:03;21.70;99.90
40253;DHT22;25972;51.854;4.534;2023-06-22T14:45:29;21.70;99.90
40253;DHT22;25972;51.854;4.534;2023-06-22T14:47:55;21.60;99.90
40253;DHT22;25972;51.854;4.534;2023-06-22T14:50:21;21.50;99.90
40253;DHT22;25972;51.854;4.534;2023-06-22T14:52:49;21.50;99.90
40253;DHT22;25972;51.854;4.534;2023-06-22T14:55:15;21.50;99.90
40253;DHT22;25972;51.854;4.534;2023-06-22T14:57:41;21.40;99.90
40253;DHT22;25972;51.854;4.534;2023-06-22T15:00:08;21.40;99.90
40253;DHT22;25972;51.854;4.534;2023-06-22T15:02:35;21.30;99.90
40253;DHT22;25972;51.854;4.534;2023-06-22T15:05:01;21.30;99.90
40253;DHT22;25972;51.854;4.534;2023-06-22T15:07:27;21.20;99.90
40253;DHT22;25972;51.854;4.534;2023-06-22T15:09:55;21.20;99.90
40253;DHT22;25972;51.854;4.534;2023-06-22T15:12:21;21.10;99.90
40253;DHT22;25972;51.854;4.534;2023-06-22T15:14:46;21.10;99.90
40253;DHT22;25972;51.854;4.534;2023-06-22T15:17:13;21.00;99.90
40253;DHT22;25972;51.854;4.534;2023-06-22T15:19:40;21.00;99.90
40253;DHT22;25972;51.854;4.534;2023-06-22T15:22:07;20.90;99.90
40253;DHT22;25972;51.854;4.534;2023-06-22T15:24:34;20.90;99.90
40253;DHT22;25972;51.854;4.534;2023-06-22T15:27:01;20.90;99.90
40253;DHT22;25972;51.854;4.534;2023-06-22T15:29:27;20.90;99.90
40253;DHT22;25972;51.854;4.534;2023-06-22T15:31:55;20.90;99.90
40253;DHT22;25972;51.854;4.534;2023-06-22T15:34:21;20.80;99.90
40253;DHT22;25972;51.854;4.534;2023-06-22T15:36:47;20.80;99.90
40253;DHT22;25972;51.854;4.534;2023-06-22T15:39:14;20.80;99.90